Time;durP1;ratioP1;P1;durP2;ratioP2;P2;SDS_P1;SDS_P2;PMS_P1;PMS_P2;Temp;Humidity;BMP_temperature;BMP_pressure;BME280_temperature;BME280_humidity;BME280_pressure;Samples;Min_cycle;Max_cycle;Signal;HPM_P1;HPM_P2
2023/09/23 00:01:39;;;;;;;11.45;5.35;;;;;;;2.57;100.00;100772.75;5055916;28;20033;-79
2023/09/23 00:04:05;;;;;;;11.52;5.38;;;;;;;2.54;100.00;100775.66;5055352;28;20073;-78
2023/09/23 00:06:31;;;;;;;12.75;5.13;;;;;;;2.47;100.00;100774.47;5055835;28;20123;-78
2023/09/23 00:08:56;;;;;;;10.20;5.70;;;;;;;2.50;100.00;100770.72;5055439;28;20035;-78
2023/09/23 00:11:25;;;;;;;9.82;5.70;;;;;;;2.48;100.00;100770.81;5072024;28;20507;-80
2023/09/23 00:13:51;;;;;;;8.80;4.20;;;;;;;2.43;100.00;100767.69;5055255;28;20024;-79
2023/09/23 00:16:17;;;;;;;10.25;5.95;;;;;;;2.39;100.00;100756.50;5073356;28;20039;-78
2023/09/23 00:18:45;;;;;;;12.05;4.95;;;;;;;2.40;100.00;100762.63;5055692;28;20036;-77
2023/09/23 00:21:14;;;;;;;9.63;4.88;;;;;;;2.29;100.00;100757.34;5055944;28;20467;-78
2023/09/23 00:23:40;;;;;;;10.77;4.65;;;;;;;2.41;100.00;100769.66;5056077;28;20032;-78
2023/09/23 00:26:06;;;;;;;9.30;4.00;;;;;;;2.36;100.00;100767.34;5041546;28;20075;-79
2023/09/23 00:28:32;;;;;;;8.57;4.20;;;;;;;2.27;100.00;100761.94;5059559;28;20020;-78
2023/09/23 00:31:05;;;;;;;8.63;3.80;;;;;;;2.19;100.00;100770.50;5076077;28;20047;-78
2023/09/23 00:33:32;;;;;;;;;;;;;;;2.15;100.00;100769.06;5059749;28;20464;-77
2023/09/23 00:35:58;;;;;;;12.05;4.68;;;;;;;2.17;100.00;100769.75;5075969;28;19912;-77
2023/09/23 00:38:24;;;;;;;9.98;4.40;;;;;;;2.13;100.00;100776.28;5059055;28;20082;-78
2023/09/23 00:40:51;;;;;;;10.70;4.40;;;;;;;2.04;100.00;100772.56;5075514;28;20028;-77
2023/09/23 00:43:18;;;;;;;12.68;4.82;;;;;;;2.01;100.00;100764.81;5042831;28;20067;-78
2023/09/23 00:45:48;;;;;;;26.35;10.00;;;;;;;2.04;100.00;100767.25;5042785;28;20032;-80
2023/09/23 00:48:18;;;;;;;20.13;7.75;;;;;;;2.05;100.00;100765.44;5059322;28;20068;-77
2023/09/23 00:50:48;;;;;;;33.38;11.35;;;;;;;2.02;100.00;100766.53;5075820;28;20036;-78
2023/09/23 00:53:14;;;;;;;55.35;17.77;;;;;;;2.01;100.00;100767.47;5059154;28;20028;-78
2023/09/23 00:55:51;;;;;;;35.65;13.85;;;;;;;1.94;100.00;100761.81;5059019;28;20356;-77
2023/09/23 00:58:21;;;;;;;19.45;8.55;;;;;;;1.84;100.00;100757.38;5060703;28;20040;-77
2023/09/23 01:00:51;;;;;;;13.57;6.05;;;;;;;1.88;100.00;100756.16;5075098;28;20122;-77
2023/09/23 01:03:17;;;;;;;11.60;6.13;;;;;;;1.85;100.00;100762.53;5075148;28;20071;-78
2023/09/23 01:05:50;;;;;;;11.43;4.78;;;;;;;1.84;100.00;100760.00;5075428;28;20069;-78
2023/09/23 01:08:18;;;;;;;14.27;5.47;;;;;;;1.78;100.00;100766.63;5043094;28;20142;-78
2023/09/23 01:10:45;;;;;;;9.73;4.30;;;;;;;1.82;100.00;100767.25;5042170;28;20074;-82
2023/09/23 01:13:11;;;;;;;10.43;4.47;;;;;;;1.82;100.00;100760.13;5025844;28;20037;-78
2023/09/23 01:15:46;;;;;;;13.88;4.90;;;;;;;1.78;100.00;100760.50;5058773;28;20558;-79
2023/09/23 01:18:13;;;;;;;10.75;4.53;;;;;;;1.71;100.00;100760.97;5060098;28;20040;-78
2023/09/23 01:20:41;;;;;;;9.75;4.13;;;;;;;1.78;100.00;100757.84;5058773;28;20115;-77
2023/09/23 01:23:12;;;;;;;7.45;4.85;;;;;;;1.81;100.00;100755.78;5058521;28;20036;-78
2023/09/23 01:25:38;;;;;;;9.52;4.82;;;;;;;1.82;100.00;100760.13;5058752;28;20028;-77
2023/09/23 01:28:11;;;;;;;15.02;5.22;;;;;;;1.82;100.00;100752.16;5025469;28;20097;-77
2023/09/23 01:30:40;;;;;;;7.18;4.75;;;;;;;1.86;100.00;100747.50;5059611;28;20035;-77
2023/09/23 01:33:10;;;;;;;7.35;4.78;;;;;;;1.79;100.00;100736.50;5042145;28;20493;-78
2023/09/23 01:35:36;;;;;;;8.50;4.57;;;;;;;1.88;100.00;100746.41;5058561;28;20039;-77
2023/09/23 01:38:06;;;;;;;7.20;3.90;;;;;;;1.86;100.00;100747.50;5058474;28;20044;-77
2023/09/23 01:40:33;;;;;;;7.97;3.72;;;;;;;1.84;100.00;100752.06;5075768;28;20024;-77
2023/09/23 01:42:59;;;;;;;7.43;3.25;;;;;;;1.74;100.00;100750.09;5074540;28;20103;-77
2023/09/23 01:45:28;;;;;;;6.35;3.17;;;;;;;1.73;100.00;100742.28;5074772;28;20519;-76
2023/09/23 01:47:57;;;;;;;8.02;3.55;;;;;;;1.76;100.00;100734.94;5058180;28;20044;-76
2023/09/23 01:50:27;;;;;;;9.50;3.42;;;;;;;1.83;100.00;100732.66;5074627;28;20029;-76
2023/09/23 01:52:55;;;;;;;5.80;3.33;;;;;;;1.84;100.00;100738.81;5074261;28;20066;-77
2023/09/23 01:55:21;;;;;;;5.38;2.97;;;;;;;1.77;100.00;100738.44;5074326;28;20081;-76
2023/09/23 01:57:50;;;;;;;6.45;3.22;;;;;;;1.71;100.00;100745.06;5074407;28;20426;-77
2023/09/23 02:00:24;;;;;;;6.75;3.30;;;;;;;1.75;100.00;100730.59;5074767;28;20029;-77
2023/09/23 02:02:52;;;;;;;6.03;2.88;;;;;;;1.89;100.00;100736.63;5042459;28;20482;-77
2023/09/23 02:05:18;;;;;;;9.38;3.50;;;;;;;2.09;100.00;100751.84;5042128;28;20479;-78
2023/09/23 02:07:47;;;;;;;8.60;3.53;;;;;;;2.23;100.00;100749.91;5074899;28;20032;-79
2023/09/23 02:10:15;;;;;;;8.07;3.10;;;;;;;2.28;100.00;100758.34;5057735;28;20024;-79
2023/09/23 02:12:44;;;;;;;5.78;3.15;;;;;;;2.46;100.00;100750.69;5057939;28;20111;-79
2023/09/23 02:15:14;;;;;;;8.63;3.47;;;;;;;2.61;100.00;100742.31;5073802;28;20039;-78
2023/09/23 02:17:49;;;;;;;10.73;3.60;;;;;;;2.82;100.00;100741.53;5073685;28;20394;-79
2023/09/23 02:20:19;;;;;;;7.05;3.17;;;;;;;2.92;100.00;100746.94;5074234;28;20490;-77
2023/09/23 02:22:47;;;;;;;9.25;4.45;;;;;;;3.03;100.00;100734.44;5057869;28;20036;-79
2023/09/23 02:25:14;;;;;;;12.65;3.28;;;;;;;3.24;100.00;100731.81;5057558;28;20086;-79
2023/09/23 02:27:46;;;;;;;9.57;3.25;;;;;;;3.29;100.00;100728.78;5057299;28;20036;-78
2023/09/23 02:30:13;;;;;;;10.73;3.90;;;;;;;3.26;100.00;100734.34;5041159;28;20475;-79
2023/09/23 02:32:49;;;;;;;6.18;3.40;;;;;;;3.23;100.00;100734.63;5040706;28;20526;-77
2023/09/23 02:35:16;;;;;;;7.45;3.40;;;;;;;3.25;100.00;100738.81;5041020;28;20159;-79
2023/09/23 02:37:44;;;;;;;11.38;4.80;;;;;;;3.25;100.00;100738.81;5073119;28;20369;-78
2023/09/23 02:40:14;;;;;;;14.32;4.28;;;;;;;3.27;100.00;100738.69;5057212;28;20383;-77
2023/09/23 02:42:41;;;;;;;12.02;4.57;;;;;;;3.25;100.00;100737.97;5057538;28;20158;-78
2023/09/23 02:45:09;;;;;;;17.27;6.20;;;;;;;3.30;100.00;100746.41;5073695;28;20025;-79
2023/09/23 02:47:36;;;;;;;16.70;6.50;;;;;;;3.34;100.00;100742.53;5055944;28;20025;-80
2023/09/23 02:50:09;;;;;;;18.50;6.50;;;;;;;3.45;100.00;100739.78;5040474;28;20055;-79
2023/09/23 02:52:39;;;;;;;19.90;7.68;;;;;;;3.55;100.00;100739.84;5040945;28;20070;-79
2023/09/23 02:55:13;;;;;;;16.48;6.47;;;;;;;3.57;100.00;100734.41;5073501;28;20360;-79
2023/09/23 02:57:54;;;;;;;11.88;5.57;;;;;;;3.64;100.00;100733.75;5057030;28;20036;-78
2023/09/23 03:00:23;;;;;;;13.35;5.60;;;;;;;3.70;100.00;100733.19;5057816;28;20072;-79
2023/09/23 03:02:59;;;;;;;13.13;5.95;;;;;;;3.78;100.00;100732.53;5073248;28;20056;-79
2023/09/23 03:05:29;;;;;;;15.73;5.75;;;;;;;3.87;100.00;100734.44;5056710;28;20097;-78
2023/09/23 03:07:58;;;;;;;17.88;5.25;;;;;;;4.03;100.00;100727.78;5040319;28;20379;-79
2023/09/23 03:10:34;;;;;;;12.63;5.55;;;;;;;3.98;100.00;100730.81;5072800;28;20028;-79
2023/09/23 03:13:07;;;;;;;10.40;4.45;;;;;;;3.88;100.00;100733.44;5057151;28;20063;-79
2023/09/23 03:15:48;;;;;;;15.32;5.00;;;;;;;3.82;100.00;100725.16;5057178;28;20363;-78
2023/09/23 03:18:33;;;;;;;9.05;4.88;;;;;;;3.73;100.00;100718.81;5057575;28;20402;-78
2023/09/23 03:21:10;;;;;;;14.27;4.95;;;;;;;3.62;100.00;100709.09;5057979;28;20463;-79
2023/09/23 03:23:39;;;;;;;10.77;4.18;;;;;;;3.57;100.00;100721.09;5057335;28;20094;-79
2023/09/23 03:26:06;;;;;;;11.32;4.22;;;;;;;3.46;100.00;100712.22;5039880;28;20434;-79
2023/09/23 03:28:35;;;;;;;8.35;3.67;;;;;;;3.41;100.00;100710.94;5056056;28;20529;-79
2023/09/23 03:31:01;;;;;;;10.52;3.60;;;;;;;3.37;100.00;100713.03;5039669;28;20545;-78
2023/09/23 03:33:27;;;;;;;9.90;3.92;;;;;;;3.23;100.00;100710.69;5056336;28;20037;-79
2023/09/23 03:35:56;;;;;;;15.30;3.95;;;;;;;3.18;100.00;100700.47;5055868;28;20032;-79
2023/09/23 03:38:22;;;;;;;9.48;3.60;;;;;;;3.07;100.00;100703.19;5040175;28;20039;-79
2023/09/23 03:41:02;;;;;;;9.00;3.78;;;;;;;2.99;100.00;100711.78;5072534;28;20032;-79
2023/09/23 03:43:29;;;;;;;8.57;3.40;;;;;;;2.97;100.00;100720.84;5041408;28;20119;-78
2023/09/23 03:45:55;;;;;;;6.13;2.65;;;;;;;2.84;100.00;100716.56;5055809;28;20063;-78
2023/09/23 03:48:21;;;;;;;5.57;3.13;;;;;;;2.71;100.00;100715.03;5073488;28;20033;-78
2023/09/23 03:51:04;;;;;;;;;;;;;;;;;;;;;
2023/09/23 03:53:44;;;;;;;10.75;3.05;;;;;;;2.51;100.00;100700.72;5045834;28;20048;-79
2023/09/23 03:56:10;;;;;;;9.10;3.15;;;;;;;2.53;100.00;100698.78;5072193;28;20059;-80
2023/09/23 03:58:38;;;;;;;10.10;3.13;;;;;;;2.61;100.00;100697.19;5072051;28;20028;-78
2023/09/23 04:01:08;;;;;;;6.53;2.70;;;;;;;2.65;100.00;100705.78;5073317;28;20032;-78
2023/09/23 04:03:34;;;;;;;9.05;3.28;;;;;;;2.67;100.00;100689.69;5039946;28;20044;-78
2023/09/23 04:06:00;;;;;;;9.52;2.70;;;;;;;2.76;100.00;100683.66;5055862;28;20382;-78
2023/09/23 04:08:26;;;;;;;5.55;2.20;;;;;;;2.79;100.00;100684.22;5038974;28;20086;-79
2023/09/23 04:10:51;;;;;;;8.93;2.72;;;;;;;2.64;100.00;100682.81;5055494;28;20037;-78
2023/09/23 04:13:17;;;;;;;4.57;2.20;;;;;;;2.39;100.00;100687.50;5055272;28;20033;-78
2023/09/23 04:15:43;;;;;;;5.72;2.10;;;;;;;2.30;100.00;100684.75;5073463;28;20458;-79
2023/09/23 04:18:09;;;;;;;10.43;2.67;;;;;;;2.34;100.00;100686.19;5039088;28;20040;-79
2023/09/23 04:20:36;;;;;;;8.27;2.20;;;;;;;2.35;100.00;100682.56;5071919;28;20029;-79
2023/09/23 04:23:02;;;;;;;4.40;2.08;;;;;;;2.44;100.00;100673.88;5055563;28;20032;-79
2023/09/23 04:25:28;;;;;;;7.53;2.60;;;;;;;2.51;100.00;100679.50;5055200;28;20020;-79
2023/09/23 04:27:57;;;;;;;5.53;2.17;;;;;;;2.41;100.00;100674.97;5038308;28;20429;-79
2023/09/23 04:30:25;;;;;;;9.35;2.90;;;;;;;2.47;100.00;100662.16;5072214;28;20552;-79
2023/09/23 04:32:51;;;;;;;9.55;2.42;;;;;;;2.49;100.00;100661.06;5055906;28;20471;-79
2023/09/23 04:35:17;;;;;;;6.53;2.78;;;;;;;2.48;100.00;100658.53;5055240;28;20033;-79
2023/09/23 04:37:43;;;;;;;9.57;2.78;;;;;;;2.38;100.00;100658.41;5038606;28;20211;-79
2023/09/23 04:40:10;;;;;;;8.15;2.55;;;;;;;2.26;100.00;100649.66;5055346;28;20043;-79
2023/09/23 04:42:37;;;;;;;7.68;2.25;;;;;;;2.17;100.00;100638.00;5072083;28;20215;-79
2023/09/23 04:45:07;;;;;;;11.07;2.60;;;;;;;2.30;100.00;100650.25;5022552;28;20110;-78
2023/09/23 04:47:35;;;;;;;9.20;3.30;;;;;;;2.49;100.00;100641.63;5038769;28;20111;-79
2023/09/23 04:50:01;;;;;;;9.18;2.70;;;;;;;2.73;100.00;100644.06;5071944;28;20382;-79
2023/09/23 04:52:27;;;;;;;11.20;2.67;;;;;;;2.76;100.00;100649.97;5055279;28;20116;-79
2023/09/23 04:54:54;;;;;;;5.75;3.05;;;;;;;2.71;100.00;100651.31;5055138;28;20032;-79
2023/09/23 04:57:20;;;;;;;13.23;3.55;;;;;;;2.64;100.00;100643.00;5038249;28;20390;-79
2023/09/23 04:59:46;;;;;;;5.85;2.60;;;;;;;2.63;100.00;100658.09;5054966;28;20028;-79
2023/09/23 05:02:13;;;;;;;16.50;3.95;;;;;;;2.62;100.00;100651.13;5055015;28;20107;-79
2023/09/23 05:04:39;;;;;;;10.32;2.92;;;;;;;2.67;100.00;100650.72;5071790;28;20037;-79
2023/09/23 05:07:05;;;;;;;8.68;2.72;;;;;;;2.66;100.00;100646.38;5055019;28;20036;-79
2023/09/23 05:09:30;;;;;;;11.82;3.30;;;;;;;2.64;100.00;100654.47;5054815;28;20036;-79
2023/09/23 05:11:59;;;;;;;13.35;2.60;;;;;;;2.60;100.00;100655.69;5074071;28;20455;-79
2023/09/23 05:14:26;;;;;;;10.90;2.97;;;;;;;2.61;100.00;100653.88;5075133;28;20098;-79
2023/09/23 05:16:51;;;;;;;8.43;2.15;;;;;;;2.64;100.00;100646.50;5058422;28;20467;-80
2023/09/23 05:19:19;;;;;;;10.18;2.50;;;;;;;2.70;100.00;100652.28;5058325;28;20036;-78
2023/09/23 05:21:46;;;;;;;4.97;2.10;;;;;;;2.71;100.00;100665.44;5074872;28;20360;-79
2023/09/23 05:24:12;;;;;;;7.00;2.05;;;;;;;2.59;100.00;100667.31;5025580;28;20064;-79
2023/09/23 05:26:40;;;;;;;5.93;2.20;;;;;;;2.52;100.00;100668.78;5041650;28;20477;-79
2023/09/23 05:29:06;;;;;;;7.05;2.38;;;;;;;2.50;100.00;100678.66;5074992;28;20024;-79
2023/09/23 05:31:32;;;;;;;8.10;2.08;;;;;;;2.50;100.00;100672.50;5058112;28;20027;-79
2023/09/23 05:33:57;;;;;;;5.03;1.60;;;;;;;2.52;100.00;100670.59;5057468;28;20074;-79
2023/09/23 05:36:23;;;;;;;7.05;2.20;;;;;;;2.50;100.00;100683.97;5075280;28;20131;-79
2023/09/23 05:38:48;;;;;;;4.07;1.88;;;;;;;2.47;100.00;100688.69;5058104;28;20054;-79
2023/09/23 05:41:14;;;;;;;8.90;2.20;;;;;;;2.43;100.00;100682.78;5074493;28;20447;-79
2023/09/23 05:43:40;;;;;;;8.13;2.33;;;;;;;2.43;100.00;100682.78;5075960;28;20025;-79
2023/09/23 05:46:09;;;;;;;6.32;1.80;;;;;;;2.38;100.00;100677.88;5058184;28;20039;-79
2023/09/23 05:48:35;;;;;;;4.43;1.73;;;;;;;2.32;100.00;100672.19;5074188;28;20035;-80
2023/09/23 05:51:05;;;;;;;3.25;1.75;;;;;;;2.33;100.00;100671.22;5074726;28;20112;-79
2023/09/23 05:53:33;;;;;;;3.78;1.88;;;;;;;2.32;100.00;100690.78;5057942;28;20029;-79
2023/09/23 05:56:01;;;;;;;7.03;2.30;;;;;;;2.25;100.00;100671.00;5041564;28;20029;-79
2023/09/23 05:58:27;;;;;;;5.15;2.28;;;;;;;2.28;100.00;100679.56;5074179;28;20064;-79
2023/09/23 06:00:53;;;;;;;6.80;2.30;;;;;;;2.22;100.00;100689.81;5057488;28;20451;-79
2023/09/23 06:03:18;;;;;;;11.32;2.35;;;;;;;2.22;100.00;100697.78;5057905;28;20047;-79
2023/09/23 06:05:44;;;;;;;6.53;2.50;;;;;;;2.23;100.00;100700.31;5057763;28;20033;-79
2023/09/23 06:08:12;;;;;;;6.28;2.47;;;;;;;2.26;100.00;100688.63;5040915;28;20066;-79
2023/09/23 06:10:39;;;;;;;6.80;2.33;;;;;;;2.32;100.00;100688.13;5057843;28;20140;-79
2023/09/23 06:13:09;;;;;;;8.60;2.35;;;;;;;2.33;100.00;100693.31;5040537;28;20028;-79
2023/09/23 06:15:35;;;;;;;9.15;3.00;;;;;;;2.32;100.00;100690.78;5057357;28;20035;-79
2023/09/23 06:18:01;;;;;;;10.63;3.05;;;;;;;2.25;100.00;100685.13;5056805;28;20394;-79
2023/09/23 06:20:27;;;;;;;12.18;2.70;;;;;;;2.37;100.00;100684.13;5040879;28;20083;-79
2023/09/23 06:22:53;;;;;;;7.97;2.40;;;;;;;2.46;100.00;100685.19;5056381;28;20055;-79
2023/09/23 06:25:20;;;;;;;4.40;2.47;;;;;;;2.45;100.00;100680.00;5040379;28;20059;-79
2023/09/23 06:27:46;;;;;;;8.05;2.53;;;;;;;2.53;100.00;100680.22;5057285;28;20036;-79
2023/09/23 06:30:15;;;;;;;8.10;2.60;;;;;;;2.66;100.00;100688.03;5040625;28;20032;-79
2023/09/23 06:32:42;;;;;;;8.90;2.65;;;;;;;2.80;100.00;100682.41;5073745;28;20502;-79
2023/09/23 06:35:10;;;;;;;8.70;2.78;;;;;;;3.00;100.00;100678.09;5056771;28;20028;-79
2023/09/23 06:37:35;;;;;;;5.47;2.03;;;;;;;3.28;100.00;100693.41;5073429;28;20035;-78
2023/09/23 06:40:01;;;;;;;8.98;2.20;;;;;;;3.67;100.00;100668.81;5056653;28;20032;-80
2023/09/23 06:42:27;;;;;;;9.07;2.60;;;;;;;4.04;100.00;100670.91;5057121;28;20085;-77
2023/09/23 06:44:52;;;;;;;12.65;2.60;;;;;;;4.38;100.00;100672.25;5056306;28;20032;-78
2023/09/23 06:47:20;;;;;;;9.07;2.33;;;;;;;4.61;100.00;100672.00;5073588;28;20119;-78
2023/09/23 06:49:45;;;;;;;10.23;2.70;;;;;;;4.85;100.00;100669.75;5040226;28;20036;-78
2023/09/23 06:52:12;;;;;;;9.48;2.63;;;;;;;5.00;100.00;100674.63;5056569;28;20047;-78
2023/09/23 06:54:38;;;;;;;10.50;2.67;;;;;;;5.18;100.00;100675.59;5056415;28;20025;-78
2023/09/23 06:57:04;;;;;;;18.98;2.97;;;;;;;5.29;100.00;100679.94;5056635;28;20036;-79
2023/09/23 06:59:30;;;;;;;11.30;2.63;;;;;;;5.37;100.00;100679.22;5056528;28;20447;-78
2023/09/23 07:01:56;;;;;;;10.00;2.88;;;;;;;5.51;100.00;100674.28;5056132;28;20021;-78
2023/09/23 07:04:22;;;;;;;14.52;2.83;;;;;;;5.61;100.00;100673.38;5073960;28;20123;-80
2023/09/23 07:06:48;;;;;;;13.50;2.70;;;;;;;5.74;100.00;100673.91;5056527;28;20107;-78
2023/09/23 07:09:18;;;;;;;11.63;2.58;;;;;;;5.86;100.00;100671.91;5072765;28;20483;-80
2023/09/23 07:11:46;;;;;;;9.07;2.25;;;;;;;5.98;100.00;100664.56;5073079;28;20479;-78
2023/09/23 07:14:11;;;;;;;11.77;2.78;;;;;;;6.04;100.00;100653.31;5056241;28;20107;-79
2023/09/23 07:16:37;;;;;;;8.98;2.22;;;;;;;6.14;100.00;100664.78;5039861;28;20109;-79
2023/09/23 07:19:03;;;;;;;15.68;2.50;;;;;;;6.22;100.00;100651.50;5056256;28;20028;-78
2023/09/23 07:21:29;;;;;;;9.93;2.10;;;;;;;6.26;100.00;100644.88;5056492;28;20060;-78
2023/09/23 07:23:55;;;;;;;12.57;2.42;;;;;;;6.33;100.00;100650.47;5039572;28;20033;-79
2023/09/23 07:26:24;;;;;;;14.13;2.22;;;;;;;6.42;100.00;100652.22;5039548;28;20055;-80
2023/09/23 07:28:50;;;;;;;13.75;2.63;;;;;;;6.54;100.00;100645.66;5055487;28;20063;-80
2023/09/23 07:31:18;;;;;;;7.78;2.75;;;;;;;6.64;100.00;100632.22;5053930;28;20032;-80
2023/09/23 07:33:44;;;;;;;7.97;1.83;;;;;;;6.78;100.00;100628.19;5069741;28;20024;-79
2023/09/23 07:36:11;;;;;;;15.23;2.60;;;;;;;6.91;100.00;100636.63;5070680;28;20036;-79
2023/09/23 07:38:38;;;;;;;7.88;2.17;;;;;;;7.03;100.00;100640.72;5036945;28;20040;-79
2023/09/23 07:41:03;;;;;;;7.70;1.85;;;;;;;7.14;100.00;100628.09;5037140;28;20112;-79
2023/09/23 07:43:29;;;;;;;10.70;2.05;;;;;;;7.20;100.00;100635.50;5053762;28;20123;-79
2023/09/23 07:45:54;;;;;;;13.35;2.88;;;;;;;7.30;100.00;100646.91;5054302;28;20058;-78
2023/09/23 07:48:20;;;;;;;10.70;2.30;;;;;;;7.37;100.00;100629.25;5055798;28;20031;-78
2023/09/23 07:50:46;;;;;;;10.70;2.22;;;;;;;7.43;100.00;100636.63;5055499;28;20028;-78
2023/09/23 07:53:12;;;;;;;5.63;1.85;;;;;;;7.49;100.00;100644.06;5055828;28;20090;-78
2023/09/23 07:55:38;;;;;;;10.77;2.33;;;;;;;7.51;100.00;100641.19;5039314;28;20036;-78
2023/09/23 07:58:04;;;;;;;7.38;1.95;;;;;;;7.55;100.00;100637.22;5039345;28;20039;-78
2023/09/23 08:00:34;;;;;;;12.48;2.30;;;;;;;7.60;100.00;100634.06;5072508;28;20090;-78
2023/09/23 08:03:12;;;;;;;12.82;2.65;;;;;;;7.62;100.00;100624.88;5054808;28;20016;-78
2023/09/23 08:05:54;;;;;;;7.20;1.85;;;;;;;7.60;100.00;100605.47;5039398;28;20044;-78
2023/09/23 08:08:40;;;;;;;10.27;2.00;;;;;;;7.62;100.00;100598.13;5041323;28;20086;-79
2023/09/23 08:11:12;;;;;;;10.85;2.00;;;;;;;7.69;100.00;100611.69;5040509;28;20044;-78
2023/09/23 08:13:41;;;;;;;12.18;2.97;;;;;;;7.81;100.00;100617.63;5040143;28;20127;-78
2023/09/23 08:16:06;;;;;;;7.50;2.05;;;;;;;7.93;100.00;100621.66;5055507;28;20120;-78
2023/09/23 08:18:33;;;;;;;6.40;1.70;;;;;;;8.00;100.00;100617.34;5071932;28;20131;-81
2023/09/23 08:20:59;;;;;;;15.32;2.85;;;;;;;8.08;100.00;100620.03;5038639;28;20044;-80
2023/09/23 08:23:25;;;;;;;9.73;2.47;;;;;;;8.19;100.00;100608.19;5037923;28;20040;-78
2023/09/23 08:26:22;;;;;;;8.60;1.80;;;;;;;8.28;100.00;100595.63;5036375;28;20518;-79
2023/09/23 08:28:48;;;;;;;10.20;2.15;;;;;;;8.39;100.00;100606.09;5056403;28;20045;-79
2023/09/23 08:31:14;;;;;;;10.90;2.20;;;;;;;8.44;100.00;100589.50;5053428;28;20025;-79
2023/09/23 08:33:40;;;;;;;11.57;2.50;;;;;;;8.50;100.00;100581.63;5053148;28;20029;-79
2023/09/23 08:36:05;;;;;;;7.63;1.65;;;;;;;8.52;100.00;100584.13;5053222;28;20502;-80
2023/09/23 08:38:34;;;;;;;7.05;1.63;;;;;;;8.57;100.00;100579.09;5070828;28;20040;-78
2023/09/23 08:41:04;;;;;;;6.65;1.88;;;;;;;8.66;100.00;100582.66;5055700;28;20047;-79
2023/09/23 08:43:37;;;;;;;10.27;2.50;;;;;;;8.71;100.00;100583.81;5071645;28;20039;-78
2023/09/23 08:46:05;;;;;;;13.02;3.70;;;;;;;8.82;100.00;100579.13;5039871;28;20067;-79
2023/09/23 08:48:32;;;;;;;10.85;4.78;;;;;;;8.95;100.00;100579.44;5058894;28;20402;-78
2023/09/23 08:51:00;;;;;;;15.18;7.10;;;;;;;9.15;100.00;100585.25;5075675;28;20032;-79
2023/09/23 08:53:26;;;;;;;13.75;4.97;;;;;;;9.17;100.00;100584.09;5059045;28;20029;-79
2023/09/23 08:55:53;;;;;;;15.65;6.07;;;;;;;9.24;100.00;100584.25;5059112;28;20115;-79
2023/09/23 08:58:19;;;;;;;11.15;6.13;;;;;;;9.37;100.00;100578.34;5075728;28;20487;-79
2023/09/23 09:00:52;;;;;;;13.75;5.13;;;;;;;9.49;100.00;100574.28;5059011;28;20071;-79
2023/09/23 09:03:18;;;;;;;16.63;6.97;;;;;;;9.75;100.00;100567.81;5060001;28;20479;-79
2023/09/23 09:05:46;;;;;;;18.85;6.68;;;;;;;10.12;100.00;100572.47;5075146;28;20076;-79
2023/09/23 09:08:16;;;;;;;11.90;4.22;;;;;;;10.32;100.00;100565.66;5075381;28;20032;-79
2023/09/23 09:10:41;;;;;;;8.40;3.47;;;;;;;10.47;100.00;100579.13;5058605;28;20040;-79
2023/09/23 09:13:07;;;;;;;5.60;2.00;;;;;;;10.60;100.00;100564.25;5058858;28;20097;-79
2023/09/23 09:15:35;;;;;;;7.50;3.47;;;;;;;10.62;100.00;100560.38;5025672;28;20032;-79
2023/09/23 09:18:01;;;;;;;8.70;2.05;;;;;;;10.68;100.00;100554.25;5042320;28;20040;-79
2023/09/23 09:20:28;;;;;;;8.77;2.85;;;;;;;10.71;100.00;100556.59;5074895;28;20502;-79
2023/09/23 09:22:54;;;;;;;9.80;4.65;;;;;;;10.69;100.00;100547.03;5075140;28;20051;-79
2023/09/23 09:25:20;;;;;;;9.50;5.55;;;;;;;10.66;100.00;100542.84;5041747;28;20467;-79
2023/09/23 09:27:46;;;;;;;6.00;2.75;;;;;;;10.57;100.00;100550.16;5058649;28;20028;-79
2023/09/23 09:30:13;;;;;;;10.77;3.70;;;;;;;10.60;100.00;100548.97;5042011;28;20033;-79
2023/09/23 09:32:42;;;;;;;8.85;3.42;;;;;;;10.71;100.00;100542.31;5058560;28;20032;-79
2023/09/23 09:35:12;;;;;;;9.88;4.78;;;;;;;10.84;100.00;100533.63;5058204;28;20051;-80
2023/09/23 09:37:41;;;;;;;11.00;5.90;;;;;;;10.99;100.00;100540.69;5074763;28;20032;-80
2023/09/23 09:40:09;;;;;;;9.82;5.28;;;;;;;11.06;100.00;100529.19;5058823;28;20475;-79
2023/09/23 09:42:38;;;;;;;5.88;3.38;;;;;;;11.18;100.00;100531.25;5059185;28;20037;-80
2023/09/23 09:45:05;;;;;;;6.35;2.90;;;;;;;11.26;100.00;100524.94;5057772;28;20037;-79
2023/09/23 09:47:32;;;;;;;13.68;7.93;;;;;;;11.42;100.00;100521.22;5058141;28;20030;-79
2023/09/23 09:49:59;;;;;;;11.35;5.30;;;;;;;11.41;100.00;100524.94;5042037;28;20051;-80
2023/09/23 09:52:26;;;;;;;6.88;2.58;;;;;;;11.38;100.00;100520.75;5075437;28;20032;-79
2023/09/23 09:54:53;;;;;;;5.68;2.90;;;;;;;11.29;100.00;100515.66;5074254;28;20376;-79
2023/09/23 09:57:23;;;;;;;6.32;2.60;;;;;;;11.22;100.00;100499.44;5057108;28;20094;-79
2023/09/23 09:59:51;;;;;;;7.75;3.92;;;;;;;11.17;100.00;100499.16;5024527;28;20033;-79
2023/09/23 10:02:18;;;;;;;5.85;3.35;;;;;;;11.21;100.00;100495.88;5074320;28;20036;-79
2023/09/23 10:04:49;;;;;;;6.15;2.08;;;;;;;11.31;100.00;100487.53;5057705;28;20037;-79
2023/09/23 10:07:16;;;;;;;6.45;2.10;;;;;;;11.43;100.00;100487.88;5040463;28;20036;-82
2023/09/23 10:09:55;;;;;;;5.22;1.45;;;;;;;11.49;100.00;100489.84;5040924;28;20045;-81
2023/09/23 10:12:31;;;;;;;8.18;3.08;;;;;;;11.57;100.00;100486.19;5058043;28;20032;-80
2023/09/23 10:15:01;;;;;;;5.05;1.73;;;;;;;11.69;100.00;100481.16;5041162;28;20040;-81
2023/09/23 10:17:31;;;;;;;4.95;1.77;;;;;;;11.76;100.00;100480.19;5057595;28;20123;-80
2023/09/23 10:19:58;;;;;;;6.90;2.45;;;;;;;11.82;100.00;100479.41;5073548;28;20035;-80
2023/09/23 10:22:30;;;;;;;5.47;1.85;;;;;;;11.87;100.00;100471.63;5041790;28;20459;-81
2023/09/23 10:25:04;;;;;;;6.82;1.80;;;;;;;11.98;100.00;100464.91;5056896;28;20038;-80
2023/09/23 10:27:31;;;;;;;4.25;1.65;;;;;;;12.08;100.00;100465.41;5057269;28;20067;-80
2023/09/23 10:29:57;;;;;;;5.20;2.08;;;;;;;12.19;100.00;100469.47;5040654;28;20056;-80
2023/09/23 10:32:22;;;;;;;6.15;1.73;;;;;;;12.36;100.00;100461.09;5040685;28;20052;-80
2023/09/23 10:34:55;;;;;;;8.50;2.20;;;;;;;12.53;100.00;100454.41;5073174;28;20036;-81
2023/09/23 10:37:25;;;;;;;6.82;2.42;;;;;;;12.66;100.00;100451.78;5040266;28;20032;-82
2023/09/23 10:39:55;;;;;;;5.47;1.75;;;;;;;12.87;100.00;100429.31;5038088;28;20037;-81
2023/09/23 10:42:21;;;;;;;6.63;2.05;;;;;;;13.16;100.00;100440.88;5040595;28;20029;-80
2023/09/23 10:44:47;;;;;;;3.88;1.60;;;;;;;13.35;100.00;100429.34;5040006;28;20123;-81
2023/09/23 10:47:14;;;;;;;7.75;2.75;;;;;;;13.45;100.00;100426.28;5071184;28;20036;-81
2023/09/23 10:49:40;;;;;;;7.53;2.28;;;;;;;13.63;100.00;100429.25;5054955;28;20052;-81
2023/09/23 10:52:05;;;;;;;9.98;2.35;;;;;;;13.71;100.00;100419.31;5054808;28;20471;-81
2023/09/23 10:54:31;;;;;;;7.00;3.20;;;;;;;13.86;100.00;100422.63;5038070;28;20024;-81
2023/09/23 10:56:58;;;;;;;12.30;6.00;;;;;;;14.08;100.00;100416.00;5070959;28;20554;-81
2023/09/23 10:59:24;;;;;;;19.67;7.57;;;;;;;14.21;100.00;100406.22;5054961;28;20034;-81
2023/09/23 11:01:49;;;;;;;10.82;5.50;;;;;;;14.25;100.00;100400.19;5021611;28;20032;-82
2023/09/23 11:04:16;;;;;;;6.63;3.38;;;;;;;14.32;100.00;100402.09;5055175;28;20060;-81
2023/09/23 11:06:42;;;;;;;8.23;2.67;;;;;;;14.32;100.00;100404.78;5056457;28;20085;-81
2023/09/23 11:09:08;;;;;;;11.15;3.55;;;;;;;14.37;100.00;100407.66;5055798;28;20391;-81
2023/09/23 11:11:36;;;;;;;9.68;2.40;;;;;;;14.37;100.00;100395.00;5056477;28;20102;-81
2023/09/23 11:14:10;;;;;;;8.52;2.92;;;;;;;14.25;100.00;100399.38;5039511;28;20095;-81
2023/09/23 11:16:35;;;;;;;;;;;;;;;14.15;100.00;100375.44;5074614;28;20531;-81
2023/09/23 11:19:07;;;;;;;17.65;3.58;;;;;;;14.18;100.00;100387.72;5056518;28;20011;-80
2023/09/23 11:21:41;;;;;;;7.55;2.58;;;;;;;14.25;100.00;100385.84;5073698;28;20028;-80
2023/09/23 11:24:08;;;;;;;9.15;4.07;;;;;;;14.24;100.00;100370.69;5072907;28;20463;-80
2023/09/23 11:26:38;;;;;;;9.82;4.78;;;;;;;14.20;100.00;100375.66;5055848;28;20051;-81